Aeroporto :
LOGIN :

Iscrizione | Disclaimer

   EN    FR    IT 

 










Sommario :    VFR   VFR Marginale   IFR   IFR Intensivo   IFR Molto Intensivo
Visibilità : 
Base nubi : 
>= 8 km
>= 3000ft
5 / 8 km
1000 / 3000 ft
1500m / 5 km
500 / 1000 ft
800 / 1500m
200 / 500 ft
< 800m
< 200 ft
Simboli :   Temporali  Nebbia  Neve Forte  Precipitazioni Forti  Vento > 20 kt
SIGMETs :   Varie  Temporali  Ghiacco  Turbolenza  Onda orograficha  Ceneri Vulcaniche






- Altitudine del aeroporto : 352 ft
- Codice IATA : ARW


LRAR - Arad International

ULTIMO METAR :
  • 301600Z 32009KT CAVOK 17/06 Q1014

METARs OBSOLETI :
  • 301530Z 32011KT 9999 FEW050CB 18/05 Q1013
  • 301500Z 28008KT 9999 FEW050CB 18/04 Q1013
  • 301430Z 30005KT 250V360 9999 FEW050CB 19/03 Q1014
  • 301400Z 33007KT 280V020 9999 FEW045CB 19/05 Q1014
  • 301330Z 31009KT CAVOK 19/06 Q1014

TAF TAF LRAR
Valido dal 30 a 15 ore il 31 a 00 ore UTC


301400Z 3015/3100 28008KT 9999 SCT045
TEMPO 3015/3018 SCT035CB
PROB30
TEMPO 3015/3018 5000 -SHRA



MetMap, La meteo Aeronautica in un colpo d'occhio ! - Copyright ORBIFLY Dicembre 2007 - Disclaimer

ORBIFLY MET'MAP TEAM :

Programmazione e sviluppo : Alexandra Zaïnal
Concezione : Baudouin d'Aumeries
Aiuto per la programmazione : Marc-Olivier Méhu
Supporto tecnico e logistico : Manuel Goepfert
Aiuto per la traduzione : Arnaldo La Scala

Contatto : metmap@orbifly.com




FONTI E CREDITI :

   NOAA